sensor_id;sensor_type;location;lat;lon;timestamp;temperature;humidity
72940;DHT22;61094;51.154;13.570;2023-08-31T00:03:42;15.40;99.90
72940;DHT22;61094;51.154;13.570;2023-08-31T00:08:45;15.40;99.90
72940;DHT22;61094;51.154;13.570;2023-08-31T00:13:47;15.60;99.90
72940;DHT22;61094;51.154;13.570;2023-08-31T00:18:50;15.60;99.90
72940;DHT22;61094;51.154;13.570;2023-08-31T00:23:52;15.70;99.90
72940;DHT22;61094;51.154;13.570;2023-08-31T00:28:54;15.60;99.90
72940;DHT22;61094;51.154;13.570;2023-08-31T00:33:58;15.50;99.90
72940;DHT22;61094;51.154;13.570;2023-08-31T00:39:04;15.40;99.90
72940;DHT22;61094;51.154;13.570;2023-08-31T00:44:09;15.20;99.90
72940;DHT22;61094;51.154;13.570;2023-08-31T00:49:12;15.20;99.90
72940;DHT22;61094;51.154;13.570;2023-08-31T00:54:16;15.10;99.90
72940;DHT22;61094;51.154;13.570;2023-08-31T00:59:18;15.00;99.90
72940;DHT22;61094;51.154;13.570;2023-08-31T01:04:26;15.00;99.90
72940;DHT22;61094;51.154;13.570;2023-08-31T01:09:39;14.90;99.90
72940;DHT22;61094;51.154;13.570;2023-08-31T01:14:56;14.90;99.90
72940;DHT22;61094;51.154;13.570;2023-08-31T01:20:00;14.90;99.90
72940;DHT22;61094;51.154;13.570;2023-08-31T01:25:06;14.80;99.90
72940;DHT22;61094;51.154;13.570;2023-08-31T01:30:09;14.80;99.90
72940;DHT22;61094;51.154;13.570;2023-08-31T01:35:13;14.80;99.90
72940;DHT22;61094;51.154;13.570;2023-08-31T01:40:21;14.80;99.90
72940;DHT22;61094;51.154;13.570;2023-08-31T01:45:25;14.80;99.90
72940;DHT22;61094;51.154;13.570;2023-08-31T01:50:27;14.70;99.90
72940;DHT22;61094;51.154;13.570;2023-08-31T01:55:30;14.70;99.90
72940;DHT22;61094;51.154;13.570;2023-08-31T02:00:32;14.70;99.90
72940;DHT22;61094;51.154;13.570;2023-08-31T02:05:35;14.60;99.90
72940;DHT22;61094;51.154;13.570;2023-08-31T02:10:38;14.60;99.90
72940;DHT22;61094;51.154;13.570;2023-08-31T02:15:40;14.50;99.90
72940;DHT22;61094;51.154;13.570;2023-08-31T02:20:42;14.50;99.90
72940;DHT22;61094;51.154;13.570;2023-08-31T02:25:45;14.50;99.90
72940;DHT22;61094;51.154;13.570;2023-08-31T02:30:46;14.50;99.90
72940;DHT22;61094;51.154;13.570;2023-08-31T02:35:58;14.50;99.90
72940;DHT22;61094;51.154;13.570;2023-08-31T02:41:01;14.40;99.90
72940;DHT22;61094;51.154;13.570;2023-08-31T02:46:04;14.40;99.90
72940;DHT22;61094;51.154;13.570;2023-08-31T02:51:05;14.40;99.90
72940;DHT22;61094;51.154;13.570;2023-08-31T02:56:08;14.30;99.90
72940;DHT22;61094;51.154;13.570;2023-08-31T03:01:11;14.20;99.90
72940;DHT22;61094;51.154;13.570;2023-08-31T03:06:18;14.10;99.90
72940;DHT22;61094;51.154;13.570;2023-08-31T03:11:21;14.00;99.90
72940;DHT22;61094;51.154;13.570;2023-08-31T03:16:23;13.90;99.90
72940;DHT22;61094;51.154;13.570;2023-08-31T03:21:24;13.90;99.90
72940;DHT22;61094;51.154;13.570;2023-08-31T03:26:27;13.80;99.90
72940;DHT22;61094;51.154;13.570;2023-08-31T03:31:30;13.80;99.90
72940;DHT22;61094;51.154;13.570;2023-08-31T03:36:32;13.80;99.90
72940;DHT22;61094;51.154;13.570;2023-08-31T03:41:35;13.70;99.90
72940;DHT22;61094;51.154;13.570;2023-08-31T03:46:37;13.70;99.90
72940;DHT22;61094;51.154;13.570;2023-08-31T03:51:39;13.70;99.90
72940;DHT22;61094;51.154;13.570;2023-08-31T03:56:43;13.70;99.90
72940;DHT22;61094;51.154;13.570;2023-08-31T04:01:47;13.60;99.90
72940;DHT22;61094;51.154;13.570;2023-08-31T04:06:49;13.60;99.90
72940;DHT22;61094;51.154;13.570;2023-08-31T04:11:52;13.60;99.90
72940;DHT22;61094;51.154;13.570;2023-08-31T04:16:54;13.60;99.90
72940;DHT22;61094;51.154;13.570;2023-08-31T04:21:56;13.50;99.90
72940;DHT22;61094;51.154;13.570;2023-08-31T04:26:59;13.50;99.90
72940;DHT22;61094;51.154;13.570;2023-08-31T04:32:01;13.40;99.90
72940;DHT22;61094;51.154;13.570;2023-08-31T04:37:02;13.40;99.90
72940;DHT22;61094;51.154;13.570;2023-08-31T04:42:06;13.50;99.90
72940;DHT22;61094;51.154;13.570;2023-08-31T04:47:08;13.50;99.90
72940;DHT22;61094;51.154;13.570;2023-08-31T04:52:10;13.50;99.90
72940;DHT22;61094;51.154;13.570;2023-08-31T04:57:13;13.50;99.90
72940;DHT22;61094;51.154;13.570;2023-08-31T05:02:15;13.50;99.90
72940;DHT22;61094;51.154;13.570;2023-08-31T05:07:17;13.50;99.90
72940;DHT22;61094;51.154;13.570;2023-08-31T05:12:20;13.60;99.90
72940;DHT22;61094;51.154;13.570;2023-08-31T05:17:22;13.60;99.90
72940;DHT22;61094;51.154;13.570;2023-08-31T05:22:24;13.60;99.90
72940;DHT22;61094;51.154;13.570;2023-08-31T05:27:27;13.60;99.90
72940;DHT22;61094;51.154;13.570;2023-08-31T05:32:29;13.60;99.90
72940;DHT22;61094;51.154;13.570;2023-08-31T05:37:32;13.70;99.90
72940;DHT22;61094;51.154;13.570;2023-08-31T05:42:37;13.70;99.90
72940;DHT22;61094;51.154;13.570;2023-08-31T05:47:40;13.70;99.90
72940;DHT22;61094;51.154;13.570;2023-08-31T05:52:42;13.80;99.90
72940;DHT22;61094;51.154;13.570;2023-08-31T05:57:46;13.80;99.90
72940;DHT22;61094;51.154;13.570;2023-08-31T06:02:48;13.80;99.90
72940;DHT22;61094;51.154;13.570;2023-08-31T06:07:50;13.90;99.90
72940;DHT22;61094;51.154;13.570;2023-08-31T06:12:54;13.90;99.90
72940;DHT22;61094;51.154;13.570;2023-08-31T06:17:56;14.00;99.90
72940;DHT22;61094;51.154;13.570;2023-08-31T06:22:58;14.20;99.90
72940;DHT22;61094;51.154;13.570;2023-08-31T06:28:02;14.30;99.90
72940;DHT22;61094;51.154;13.570;2023-08-31T06:33:06;14.50;99.90
72940;DHT22;61094;51.154;13.570;2023-08-31T06:38:08;14.50;99.90
72940;DHT22;61094;51.154;13.570;2023-08-31T06:43:12;14.50;99.90
72940;DHT22;61094;51.154;13.570;2023-08-31T06:48:16;14.60;99.90
72940;DHT22;61094;51.154;13.570;2023-08-31T06:53:18;14.70;99.90
72940;DHT22;61094;51.154;13.570;2023-08-31T06:58:21;14.90;99.90
72940;DHT22;61094;51.154;13.570;2023-08-31T07:03:25;14.90;99.90
72940;DHT22;61094;51.154;13.570;2023-08-31T07:08:27;14.80;99.90
72940;DHT22;61094;51.154;13.570;2023-08-31T07:13:30;14.70;99.90
72940;DHT22;61094;51.154;13.570;2023-08-31T07:18:32;14.70;99.90
72940;DHT22;61094;51.154;13.570;2023-08-31T07:23:37;14.90;99.90
72940;DHT22;61094;51.154;13.570;2023-08-31T07:28:40;15.10;99.90
72940;DHT22;61094;51.154;13.570;2023-08-31T07:33:45;15.20;99.90
72940;DHT22;61094;51.154;13.570;2023-08-31T07:38:47;15.40;99.90
72940;DHT22;61094;51.154;13.570;2023-08-31T07:43:51;15.90;99.80
72940;DHT22;61094;51.154;13.570;2023-08-31T07:48:53;16.10;95.60
72940;DHT22;61094;51.154;13.570;2023-08-31T07:53:55;16.50;96.60
72940;DHT22;61094;51.154;13.570;2023-08-31T07:59:00;17.00;91.90
72940;DHT22;61094;51.154;13.570;2023-08-31T08:04:02;17.20;88.70
72940;DHT22;61094;51.154;13.570;2023-08-31T08:09:04;17.40;90.00
72940;DHT22;61094;51.154;13.570;2023-08-31T08:14:08;17.60;81.50
72940;DHT22;61094;51.154;13.570;2023-08-31T08:19:10;17.70;80.30
72940;DHT22;61094;51.154;13.570;2023-08-31T08:24:13;17.90;80.10
72940;DHT22;61094;51.154;13.570;2023-08-31T08:29:17;18.10;75.40
72940;DHT22;61094;51.154;13.570;2023-08-31T08:34:18;18.10;65.30
72940;DHT22;61094;51.154;13.570;2023-08-31T08:39:20;18.10;73.40
72940;DHT22;61094;51.154;13.570;2023-08-31T08:44:25;17.90;72.90
72940;DHT22;61094;51.154;13.570;2023-08-31T08:49:28;17.90;67.70
72940;DHT22;61094;51.154;13.570;2023-08-31T08:54:31;17.60;73.60
72940;DHT22;61094;51.154;13.570;2023-08-31T08:59:35;17.40;74.90
72940;DHT22;61094;51.154;13.570;2023-08-31T09:04:37;17.40;77.20
72940;DHT22;61094;51.154;13.570;2023-08-31T09:09:48;17.90;77.80
72940;DHT22;61094;51.154;13.570;2023-08-31T09:14:59;17.90;71.70
72940;DHT22;61094;51.154;13.570;2023-08-31T09:20:01;18.30;64.60
72940;DHT22;61094;51.154;13.570;2023-08-31T09:25:04;19.00;52.40
72940;DHT22;61094;51.154;13.570;2023-08-31T09:30:08;19.30;50.20
72940;DHT22;61094;51.154;13.570;2023-08-31T09:35:11;19.20;56.50
72940;DHT22;61094;51.154;13.570;2023-08-31T09:40:14;18.90;51.20
72940;DHT22;61094;51.154;13.570;2023-08-31T09:45:19;18.70;51.90
72940;DHT22;61094;51.154;13.570;2023-08-31T09:50:27;18.50;52.50
72940;DHT22;61094;51.154;13.570;2023-08-31T09:55:31;18.10;54.80
72940;DHT22;61094;51.154;13.570;2023-08-31T10:00:37;17.80;58.10
72940;DHT22;61094;51.154;13.570;2023-08-31T10:05:38;17.60;63.50
72940;DHT22;61094;51.154;13.570;2023-08-31T10:10:41;17.70;65.20
72940;DHT22;61094;51.154;13.570;2023-08-31T10:15:44;18.50;56.60
72940;DHT22;61094;51.154;13.570;2023-08-31T10:20:46;19.20;46.00
72940;DHT22;61094;51.154;13.570;2023-08-31T10:26:00;20.00;40.50
72940;DHT22;61094;51.154;13.570;2023-08-31T10:31:04;20.30;38.40
72940;DHT22;61094;51.154;13.570;2023-08-31T10:36:11;20.00;41.10
72940;DHT22;61094;51.154;13.570;2023-08-31T10:41:20;19.70;41.10
72940;DHT22;61094;51.154;13.570;2023-08-31T10:46:27;20.00;41.30
72940;DHT22;61094;51.154;13.570;2023-08-31T10:51:30;19.90;40.40
72940;DHT22;61094;51.154;13.570;2023-08-31T10:56:32;19.50;42.40
72940;DHT22;61094;51.154;13.570;2023-08-31T11:01:58;18.80;62.80
72940;DHT22;61094;51.154;13.570;2023-08-31T11:07:18;16.90;99.90
72940;DHT22;61094;51.154;13.570;2023-08-31T11:12:22;14.60;99.90
72940;DHT22;61094;51.154;13.570;2023-08-31T11:17:26;13.40;99.90
72940;DHT22;61094;51.154;13.570;2023-08-31T11:22:28;12.80;99.90
72940;DHT22;61094;51.154;13.570;2023-08-31T11:27:30;12.60;99.90
72940;DHT22;61094;51.154;13.570;2023-08-31T11:32:45;13.20;99.90
72940;DHT22;61094;51.154;13.570;2023-08-31T11:37:50;13.70;99.90
72940;DHT22;61094;51.154;13.570;2023-08-31T11:42:52;14.10;99.90
72940;DHT22;61094;51.154;13.570;2023-08-31T11:47:55;14.70;99.90
72940;DHT22;61094;51.154;13.570;2023-08-31T11:52:57;15.50;99.90
72940;DHT22;61094;51.154;13.570;2023-08-31T11:57:59;16.00;99.90
72940;DHT22;61094;51.154;13.570;2023-08-31T12:03:03;16.50;99.90
72940;DHT22;61094;51.154;13.570;2023-08-31T12:08:05;16.90;99.90
72940;DHT22;61094;51.154;13.570;2023-08-31T12:13:08;17.30;99.90
72940;DHT22;61094;51.154;13.570;2023-08-31T12:18:13;17.70;92.80
72940;DHT22;61094;51.154;13.570;2023-08-31T12:23:15;17.70;97.60
72940;DHT22;61094;51.154;13.570;2023-08-31T12:28:18;18.00;97.60
72940;DHT22;61094;51.154;13.570;2023-08-31T12:33:22;18.60;95.80
72940;DHT22;61094;51.154;13.570;2023-08-31T12:38:25;19.20;89.10
72940;DHT22;61094;51.154;13.570;2023-08-31T12:43:27;19.30;71.00
72940;DHT22;61094;51.154;13.570;2023-08-31T12:48:31;19.40;69.50
72940;DHT22;61094;51.154;13.570;2023-08-31T12:53:37;19.80;48.30
72940;DHT22;61094;51.154;13.570;2023-08-31T12:58:39;20.10;71.50
72940;DHT22;61094;51.154;13.570;2023-08-31T13:03:42;20.20;48.80
72940;DHT22;61094;51.154;13.570;2023-08-31T13:08:44;20.20;48.20
72940;DHT22;61094;51.154;13.570;2023-08-31T13:13:46;20.30;61.10
72940;DHT22;61094;51.154;13.570;2023-08-31T13:18:50;20.50;46.60
72940;DHT22;61094;51.154;13.570;2023-08-31T13:23:52;20.90;46.00
72940;DHT22;61094;51.154;13.570;2023-08-31T13:28:54;21.10;44.70
72940;DHT22;61094;51.154;13.570;2023-08-31T13:33:57;21.10;44.40
72940;DHT22;61094;51.154;13.570;2023-08-31T13:38:59;20.80;41.20
72940;DHT22;61094;51.154;13.570;2023-08-31T13:44:01;20.60;47.50
72940;DHT22;61094;51.154;13.570;2023-08-31T13:49:07;20.80;40.90
72940;DHT22;61094;51.154;13.570;2023-08-31T13:54:09;20.60;41.80
72940;DHT22;61094;51.154;13.570;2023-08-31T13:59:11;20.60;41.50
72940;DHT22;61094;51.154;13.570;2023-08-31T14:04:14;20.40;42.00
72940;DHT22;61094;51.154;13.570;2023-08-31T14:09:17;19.70;44.10
72940;DHT22;61094;51.154;13.570;2023-08-31T14:14:19;19.60;45.90
72940;DHT22;61094;51.154;13.570;2023-08-31T14:19:23;20.00;45.00
72940;DHT22;61094;51.154;13.570;2023-08-31T14:24:25;20.10;40.80
72940;DHT22;61094;51.154;13.570;2023-08-31T14:29:27;19.90;40.70
72940;DHT22;61094;51.154;13.570;2023-08-31T14:34:31;19.80;38.30
72940;DHT22;61094;51.154;13.570;2023-08-31T14:39:33;20.40;37.20
72940;DHT22;61094;51.154;13.570;2023-08-31T14:44:35;20.70;36.00
72940;DHT22;61094;51.154;13.570;2023-08-31T14:49:39;20.90;34.00
72940;DHT22;61094;51.154;13.570;2023-08-31T14:54:41;21.00;32.60
72940;DHT22;61094;51.154;13.570;2023-08-31T14:59:43;21.30;34.70
72940;DHT22;61094;51.154;13.570;2023-08-31T15:04:47;21.00;33.10
72940;DHT22;61094;51.154;13.570;2023-08-31T15:09:51;21.20;34.30
72940;DHT22;61094;51.154;13.570;2023-08-31T15:14:53;21.30;34.50
72940;DHT22;61094;51.154;13.570;2023-08-31T15:19:56;21.20;32.90
72940;DHT22;61094;51.154;13.570;2023-08-31T15:24:58;21.10;34.20
72940;DHT22;61094;51.154;13.570;2023-08-31T15:30:00;20.90;34.80
72940;DHT22;61094;51.154;13.570;2023-08-31T15:35:04;20.50;35.30
72940;DHT22;61094;51.154;13.570;2023-08-31T15:40:07;20.20;36.20
72940;DHT22;61094;51.154;13.570;2023-08-31T15:45:10;20.40;36.10
72940;DHT22;61094;51.154;13.570;2023-08-31T15:50:13;20.60;35.80
72940;DHT22;61094;51.154;13.570;2023-08-31T15:55:15;20.60;35.00
72940;DHT22;61094;51.154;13.570;2023-08-31T16:00:17;20.30;36.30
72940;DHT22;61094;51.154;13.570;2023-08-31T16:05:24;20.10;36.90
72940;DHT22;61094;51.154;13.570;2023-08-31T16:10:26;20.00;37.50
72940;DHT22;61094;51.154;13.570;2023-08-31T16:15:28;19.90;37.50
72940;DHT22;61094;51.154;13.570;2023-08-31T16:20:31;19.80;38.30
72940;DHT22;61094;51.154;13.570;2023-08-31T16:25:33;19.80;37.90
72940;DHT22;61094;51.154;13.570;2023-08-31T16:30:35;19.70;36.10
72940;DHT22;61094;51.154;13.570;2023-08-31T16:35:38;19.50;36.00
72940;DHT22;61094;51.154;13.570;2023-08-31T16:40:40;19.40;36.10
72940;DHT22;61094;51.154;13.570;2023-08-31T16:45:42;19.20;36.00
72940;DHT22;61094;51.154;13.570;2023-08-31T16:50:45;19.00;36.50
72940;DHT22;61094;51.154;13.570;2023-08-31T16:55:47;18.90;38.00
72940;DHT22;61094;51.154;13.570;2023-08-31T17:00:49;18.90;39.70
72940;DHT22;61094;51.154;13.570;2023-08-31T17:05:52;19.00;41.90
72940;DHT22;61094;51.154;13.570;2023-08-31T17:10:54;18.90;43.90
72940;DHT22;61094;51.154;13.570;2023-08-31T17:15:56;18.80;45.60
72940;DHT22;61094;51.154;13.570;2023-08-31T17:20:59;18.80;54.80
72940;DHT22;61094;51.154;13.570;2023-08-31T17:26:01;18.60;60.80
72940;DHT22;61094;51.154;13.570;2023-08-31T17:31:03;18.30;64.50
72940;DHT22;61094;51.154;13.570;2023-08-31T17:36:07;18.10;68.40
72940;DHT22;61094;51.154;13.570;2023-08-31T17:41:08;17.90;76.40
72940;DHT22;61094;51.154;13.570;2023-08-31T17:46:11;17.80;78.30
72940;DHT22;61094;51.154;13.570;2023-08-31T17:51:14;17.60;85.50
72940;DHT22;61094;51.154;13.570;2023-08-31T17:56:16;17.40;90.40
72940;DHT22;61094;51.154;13.570;2023-08-31T18:01:17;17.20;89.40
72940;DHT22;61094;51.154;13.570;2023-08-31T18:06:20;17.00;89.70
72940;DHT22;61094;51.154;13.570;2023-08-31T18:11:22;16.80;90.40
72940;DHT22;61094;51.154;13.570;2023-08-31T18:16:24;16.70;94.70
72940;DHT22;61094;51.154;13.570;2023-08-31T18:21:27;16.60;95.60
72940;DHT22;61094;51.154;13.570;2023-08-31T18:26:29;16.40;96.30
72940;DHT22;61094;51.154;13.570;2023-08-31T18:31:31;16.20;97.80
72940;DHT22;61094;51.154;13.570;2023-08-31T18:36:34;16.00;98.60
72940;DHT22;61094;51.154;13.570;2023-08-31T18:41:37;15.80;99.40
72940;DHT22;61094;51.154;13.570;2023-08-31T18:46:42;15.60;99.80
72940;DHT22;61094;51.154;13.570;2023-08-31T18:51:45;15.40;99.90
72940;DHT22;61094;51.154;13.570;2023-08-31T18:56:48;15.00;99.90
72940;DHT22;61094;51.154;13.570;2023-08-31T19:01:49;14.90;99.90
72940;DHT22;61094;51.154;13.570;2023-08-31T19:06:53;14.90;99.90
72940;DHT22;61094;51.154;13.570;2023-08-31T19:11:55;14.80;99.90
72940;DHT22;61094;51.154;13.570;2023-08-31T19:16:57;14.70;99.90
72940;DHT22;61094;51.154;13.570;2023-08-31T19:22:00;14.70;99.90
72940;DHT22;61094;51.154;13.570;2023-08-31T19:27:03;14.80;99.90
72940;DHT22;61094;51.154;13.570;2023-08-31T19:32:05;14.80;99.90
72940;DHT22;61094;51.154;13.570;2023-08-31T19:37:09;14.90;99.90
72940;DHT22;61094;51.154;13.570;2023-08-31T19:42:11;14.70;99.90
72940;DHT22;61094;51.154;13.570;2023-08-31T19:47:13;14.80;99.90
72940;DHT22;61094;51.154;13.570;2023-08-31T19:52:16;14.80;99.90
72940;DHT22;61094;51.154;13.570;2023-08-31T19:57:17;14.70;99.90
72940;DHT22;61094;51.154;13.570;2023-08-31T20:02:19;14.60;99.90
72940;DHT22;61094;51.154;13.570;2023-08-31T20:07:22;14.50;99.90
72940;DHT22;61094;51.154;13.570;2023-08-31T20:12:24;14.50;99.90
72940;DHT22;61094;51.154;13.570;2023-08-31T20:17:26;14.40;99.90
72940;DHT22;61094;51.154;13.570;2023-08-31T20:22:30;14.40;99.90
72940;DHT22;61094;51.154;13.570;2023-08-31T20:27:32;14.40;99.90
72940;DHT22;61094;51.154;13.570;2023-08-31T20:32:33;14.50;99.90
72940;DHT22;61094;51.154;13.570;2023-08-31T20:37:37;14.40;99.90
72940;DHT22;61094;51.154;13.570;2023-08-31T20:42:39;14.20;99.90
72940;DHT22;61094;51.154;13.570;2023-08-31T20:47:40;14.10;99.90
72940;DHT22;61094;51.154;13.570;2023-08-31T20:52:46;14.10;99.90
72940;DHT22;61094;51.154;13.570;2023-08-31T20:57:48;14.00;99.90
72940;DHT22;61094;51.154;13.570;2023-08-31T21:02:50;13.90;99.90
72940;DHT22;61094;51.154;13.570;2023-08-31T21:07:54;13.90;99.90
72940;DHT22;61094;51.154;13.570;2023-08-31T21:12:55;13.90;99.90
72940;DHT22;61094;51.154;13.570;2023-08-31T21:17:57;13.90;99.90
72940;DHT22;61094;51.154;13.570;2023-08-31T21:23:01;13.90;99.90
72940;DHT22;61094;51.154;13.570;2023-08-31T21:28:03;13.70;99.90
72940;DHT22;61094;51.154;13.570;2023-08-31T21:33:05;13.30;99.90
72940;DHT22;61094;51.154;13.570;2023-08-31T21:38:09;13.00;99.90
72940;DHT22;61094;51.154;13.570;2023-08-31T21:43:11;12.80;99.90
72940;DHT22;61094;51.154;13.570;2023-08-31T21:48:13;12.70;99.90
72940;DHT22;61094;51.154;13.570;2023-08-31T21:53:16;12.60;99.90
72940;DHT22;61094;51.154;13.570;2023-08-31T21:58:17;12.50;99.90
72940;DHT22;61094;51.154;13.570;2023-08-31T22:03:19;12.40;99.90
72940;DHT22;61094;51.154;13.570;2023-08-31T22:08:22;12.40;99.90
72940;DHT22;61094;51.154;13.570;2023-08-31T22:13:24;12.40;99.90
72940;DHT22;61094;51.154;13.570;2023-08-31T22:18:26;12.40;99.90
72940;DHT22;61094;51.154;13.570;2023-08-31T22:23:30;12.50;99.90
72940;DHT22;61094;51.154;13.570;2023-08-31T22:28:32;12.40;99.90
72940;DHT22;61094;51.154;13.570;2023-08-31T22:33:34;12.40;99.90
72940;DHT22;61094;51.154;13.570;2023-08-31T22:38:39;12.40;99.90
72940;DHT22;61094;51.154;13.570;2023-08-31T22:43:41;12.50;99.90
72940;DHT22;61094;51.154;13.570;2023-08-31T22:48:43;12.50;99.90
72940;DHT22;61094;51.154;13.570;2023-08-31T22:53:46;12.50;99.90
72940;DHT22;61094;51.154;13.570;2023-08-31T22:58:48;12.50;99.90
72940;DHT22;61094;51.154;13.570;2023-08-31T23:03:50;12.50;99.90
72940;DHT22;61094;51.154;13.570;2023-08-31T23:08:53;12.50;99.90
72940;DHT22;61094;51.154;13.570;2023-08-31T23:13:55;12.60;99.90
72940;DHT22;61094;51.154;13.570;2023-08-31T23:18:57;12.60;99.90
72940;DHT22;61094;51.154;13.570;2023-08-31T23:24:00;12.60;99.90
72940;DHT22;61094;51.154;13.570;2023-08-31T23:29:03;12.60;99.90
72940;DHT22;61094;51.154;13.570;2023-08-31T23:34:06;12.50;99.90
72940;DHT22;61094;51.154;13.570;2023-08-31T23:39:10;12.50;99.90
72940;DHT22;61094;51.154;13.570;2023-08-31T23:44:12;12.50;99.90
72940;DHT22;61094;51.154;13.570;2023-08-31T23:49:13;12.50;99.90
72940;DHT22;61094;51.154;13.570;2023-08-31T23:54:17;12.50;99.90
72940;DHT22;61094;51.154;13.570;2023-08-31T23:59:18;12.40;99.90
